Skip to main content

NOAA/GLERL Met Station at Chicago, IL

Previous 5 days (top of hour only)
See also Previous 3 Hours (2 minute increments)
Jump down to Data
Switch to [English][Metric]
Zoom: Click and drag, Pan: shift-click and drag, Unzoom: double-click, Unzoom All




Note: Speed = mean wind during 2-minute period at top of hour,
Gust = max wind during 2-minute period at top of hour,
Peak = max wind during entire hour.
• See also 5-day windrose plot


NOAA/GLERL Met Station at Chicago, IL

Previous 5 days (top of hour only)
See also Previous 3 Hours (2 minute increments)
Jump up to Graphs
Switch to [English][Metric]
                  Wind  Wind  Wind   Air   Dew   Rel
                   Spd   Gst   Dir  Temp    Pt   Hum
YYYY-MM-DD   CDT   m/s   m/s   deg     C     C     %
2021-04-20 00:00 -99.0 -99.0   -99   0.0   0.0   0.0
2021-04-19 13:00   5.0   6.1   248   7.8   4.4  78.8
2021-04-19 12:00   6.7   7.3   258   7.5   4.7  82.2
2021-04-19 11:00  12.0  12.9   291   7.7   5.8  87.7
2021-04-19 10:00   8.1   8.9   288  10.7   5.3  69.0
2021-04-19 09:00   8.1   9.0   281  10.9   3.8  61.4
2021-04-19 08:00   7.0   8.3   265  10.7   2.7  57.4
2021-04-19 07:00   7.4   8.4   252  10.7   2.3  55.9
2021-04-19 06:00   8.6  11.1   243  11.1   2.2  54.0
2021-04-19 05:00  11.0  12.7   241  11.7   1.4  49.0
2021-04-19 04:00   9.2  11.2   241  12.3   1.1  46.0
2021-04-19 03:00  10.1  11.8   241  12.7   0.9  44.3
2021-04-19 02:00   8.8   9.9   240  13.6   1.0  42.1
2021-04-19 01:00   9.1  10.6   234  14.1   1.4  41.8
2021-04-19 00:00   6.5   7.3   233  14.1   2.1  43.8
2021-04-18 23:00   6.2   7.6   251  14.5   1.5  40.9
2021-04-18 22:00   5.3   6.0   253  14.9   1.0  38.5
2021-04-18 21:00   4.9   5.2   216  15.1   0.0  35.4
2021-04-18 20:00   3.8   4.1   237  15.6  -0.1  34.0
2021-04-18 19:00   4.7   5.7   237  15.7  -0.5  32.8
2021-04-18 18:00   4.3   5.1   148  12.3   3.0  52.8
2021-04-18 17:00   6.4   7.2   144  12.7   1.5  46.1
2021-04-18 16:00   6.8   7.5   130  10.9   3.7  61.0
2021-04-18 15:00   7.1   7.5   129  10.2   3.7  63.9
2021-04-18 14:00   6.6   7.4   133   9.5   3.3  65.2
2021-04-18 13:00   7.4   7.8   122   8.7   3.1  67.7
2021-04-18 12:00   6.9   7.3   118   8.2   5.7  84.0
2021-04-18 11:00   5.5   5.7   132   8.8   4.9  76.3
2021-04-18 10:00   5.2   5.5   144   9.5   3.5  66.0
2021-04-18 09:00   3.1   3.3   182   9.3   2.4  61.7
2021-04-18 08:00   1.2   1.4   337   8.3   3.4  71.0
2021-04-18 07:00   1.9   2.1   211   8.2   1.9  64.4
2021-04-18 06:00   2.2   2.3   262   7.4   1.5  66.2
2021-04-18 05:00   1.9   2.1   302   6.9   0.5  63.8
2021-04-18 04:00   3.6   3.9   271   7.8   0.4  59.4
2021-04-18 03:00   3.1   3.2   278   7.7   0.5  60.4
2021-04-18 02:00   3.3   3.5   272   7.7   0.8  61.6
2021-04-18 01:00   2.2   2.3   267   8.1  -0.1  56.2
2021-04-18 00:00   2.1   2.2   236   8.4  -3.6  42.4
2021-04-17 23:00   1.9   2.1   290   6.6   1.2  68.2
2021-04-17 22:00   1.6   1.9   305   6.1   0.6  67.6
2021-04-17 21:00   1.6   1.8   340   5.8   0.8  69.9
2021-04-17 20:00   0.7   1.0    56   5.6   0.6  69.9
2021-04-17 19:00   1.6   2.0    66   6.1   1.0  69.8
2021-04-17 18:00   1.8   2.3    43   6.1   1.9  74.4
2021-04-17 17:00   1.4   2.0    41   5.7   3.7  87.2
2021-04-17 16:00   1.9   2.1    50   5.6   3.7  87.6
2021-04-17 15:00   4.1   4.4    12   5.2   3.7  90.2
2021-04-17 14:00   5.8   6.1     1   4.8   4.2  96.0
2021-04-17 13:00   5.6   6.2   357   4.9   4.1  94.3
2021-04-17 12:00   6.2   6.8   357   4.7   4.4  97.7
2021-04-17 11:00   6.9   7.3   351   4.6   4.3  97.7
2021-04-17 10:00   6.3   6.9   355   4.6   4.4  98.5
2021-04-17 09:00   6.5   6.7     1   4.8   4.4  97.2
2021-04-17 08:00   7.5   8.1     1   4.8   4.3  96.6
2021-04-17 07:00   7.4   8.1   358   4.8   4.4  97.1
2021-04-17 06:00   7.3   8.0   356   4.7   4.5  98.4
2021-04-17 05:00   7.1   7.6   348   4.5   3.8  95.4
2021-04-17 04:00   7.3   7.9   347   4.8   3.4  90.6
2021-04-17 03:00   7.7   8.2   351   5.0   3.2  88.2
2021-04-17 02:00   5.8   6.2   351   5.1   3.5  89.2
2021-04-17 01:00   3.9   4.3   352   5.2   3.7  89.9
2021-04-17 00:00   3.3   3.8    11   5.2   3.4  87.9
2021-04-16 23:00   1.2   1.5    34   5.1   3.3  88.3
2021-04-16 22:00   1.0   1.4    38   4.9   3.7  92.0
2021-04-16 21:00   2.7   3.1    19   4.4   4.0  97.5
2021-04-16 20:00   4.4   4.8    45   4.1   3.7  97.0
2021-04-16 19:00   4.0   4.4    44   4.3   3.8  96.2
2021-04-16 18:00   3.2   3.7    59   5.0   4.0  93.4
2021-04-16 17:00   3.7   4.2    65   4.8   3.8  93.0
2021-04-16 16:00   3.7   4.2    74   4.8   3.9  93.9
2021-04-16 15:00   3.9   4.2    88   4.8   4.0  94.3
2021-04-16 14:00   4.2   5.0    78   4.6   4.1  96.3
2021-04-16 13:00   4.4   4.9    66   4.4   4.0  97.0
2021-04-16 12:00   4.8   5.4    41   4.4   4.0  96.9
2021-04-16 11:00   4.7   5.1    10   4.4   3.8  95.6
2021-04-16 10:00   2.8   3.2   349   4.3   3.5  94.4
2021-04-16 09:00   4.0   4.6     0   4.2   3.5  95.3
2021-04-16 08:00   4.7   5.1    14   4.3   3.9  97.5
2021-04-16 07:00   5.1   5.7    18   4.4   4.2  98.6
2021-04-16 06:00   4.6   5.2    26   4.6   4.2  97.1
2021-04-16 05:00   6.8   7.5     5   5.9   5.2  95.2
2021-04-16 04:00   6.7   7.5   298   8.0   3.2  71.4
2021-04-16 03:00   5.3   6.0   278   7.7   3.1  72.3
2021-04-16 02:00   5.6   6.4   278   7.6   3.0  72.7
2021-04-16 01:00   6.1   6.6   262   7.7   2.9  71.3
2021-04-16 00:00   3.6   3.9   278   7.6   2.6  70.7
2021-04-15 23:00   3.3   3.8   256   7.7   3.0  72.2
2021-04-15 22:00   2.5   2.9   246   6.8   3.4  78.9
2021-04-15 21:00   2.5   2.8   194   6.2   3.1  80.7
2021-04-15 20:00   1.4   1.7   104   5.6   2.4  80.0
2021-04-15 19:00   1.3   1.8    94   6.3   2.9  79.0
2021-04-15 18:00   2.6   2.9    32   6.2   3.0  79.7
2021-04-15 17:00   4.5   4.7    41   5.8   3.0  82.2
2021-04-15 16:00   5.3   5.7    23   6.2   2.8  78.7
2021-04-15 15:00   6.2   6.9    26   5.8   2.6  79.8
2021-04-15 14:00   5.5   6.0    21   6.3   3.2  80.3
2021-04-15 13:00   4.1   4.5    15   6.6   2.9  77.2
2021-04-15 12:00   4.7   5.3     6   6.6   3.7  81.5
2021-04-15 11:00   5.9   6.6   349   6.3   3.2  80.4
2021-04-15 10:00   8.5   9.8   330   6.0   2.3  77.3
2021-04-15 09:00   6.7   7.4   315   5.6   2.4  79.8
2021-04-15 08:00   6.6   7.5   316   5.2   1.8  78.5
2021-04-15 07:00   7.7   9.1   316   4.8   1.0  76.4
2021-04-15 06:00   8.3   9.4   317   4.7   1.0  76.9
2021-04-15 05:00   8.4   9.4   292   4.8   1.2  77.2
2021-04-15 04:00   6.7   7.3   297   4.8   0.6  74.3
2021-04-15 03:00   6.4   7.5   281   4.7   0.4  73.6
2021-04-15 02:00   6.9   7.6   284   4.8  -0.5  68.3
2021-04-15 01:00   7.4   8.3   311   5.2  -0.9  64.7
2021-04-15 00:00   6.0   6.9   318   5.5  -0.6  64.8
2021-04-14 23:00   6.1   6.9   298   5.7  -0.6  63.7
2021-04-14 22:00   1.6   2.1   126   4.7   1.7  80.9
2021-04-14 21:00   2.7   3.2    86   4.5   1.1  78.6
2021-04-14 20:00   3.5   4.0    39   4.5   0.7  76.2
2021-04-14 19:00   4.1   5.1    37   4.5   1.5  80.6